createdAt,value
2019-01-31T00:00:25.072Z,19.17
2019-01-31T00:03:03.172Z,19.60
2019-01-31T00:05:51.810Z,18.07
2019-01-31T00:08:45.424Z,16.63
2019-01-31T00:11:23.498Z,15.70
2019-01-31T00:14:03.754Z,17.80
2019-01-31T00:16:48.194Z,16.47
2019-01-31T00:19:23.342Z,16.10
2019-01-31T00:23:38.920Z,15.93
2019-01-31T00:26:25.138Z,15.67
2019-01-31T00:29:04.273Z,15.93
2019-01-31T00:31:50.943Z,17.63
2019-01-31T00:36:48.234Z,15.13
2019-01-31T00:39:38.739Z,15.37
2019-01-31T00:42:22.012Z,15.90
2019-01-31T00:47:10.593Z,16.80
2019-01-31T00:49:55.663Z,17.07
2019-01-31T00:54:44.045Z,17.17
2019-01-31T00:57:25.036Z,17.30
2019-01-31T01:00:06.235Z,15.00
2019-01-31T01:02:50.090Z,18.07
2019-01-31T01:06:41.963Z,18.20
2019-01-31T01:09:17.283Z,15.90
2019-01-31T01:12:04.397Z,15.70
2019-01-31T01:14:57.579Z,16.93
2019-01-31T01:17:46.870Z,16.53
2019-01-31T01:20:30.174Z,16.93
2019-01-31T01:23:09.537Z,16.13
2019-01-31T01:26:01.299Z,13.73
2019-01-31T01:28:55.750Z,14.97
2019-01-31T01:32:03.234Z,14.20
2019-01-31T01:34:43.708Z,13.60
2019-01-31T01:37:36.761Z,14.50
2019-01-31T01:40:28.690Z,16.73
2019-01-31T01:44:09.534Z,14.90
2019-01-31T01:46:46.070Z,13.30
2019-01-31T01:49:23.679Z,15.23
2019-01-31T01:52:07.971Z,16.73
2019-01-31T01:55:01.409Z,15.23
2019-01-31T01:58:43.344Z,16.30
2019-01-31T02:02:21.816Z,15.07
2019-01-31T02:07:10.734Z,15.70
2019-01-31T02:10:51.051Z,16.73
2019-01-31T02:15:37.641Z,16.17
2019-01-31T02:18:15.391Z,17.50
2019-01-31T02:20:59.716Z,19.70
2019-01-31T02:23:41.819Z,17.63
2019-01-31T02:27:21.057Z,18.17
2019-01-31T02:31:03.713Z,18.90
2019-01-31T02:33:45.087Z,20.60
2019-01-31T02:36:35.873Z,19.17
2019-01-31T02:39:49.888Z,19.43
2019-01-31T02:42:31.657Z,18.30
2019-01-31T02:47:15.564Z,22.17
2019-01-31T02:49:56.500Z,20.73
2019-01-31T02:53:07.290Z,21.20
2019-01-31T02:55:49.009Z,19.57
2019-01-31T02:58:27.167Z,21.83
2019-01-31T03:01:09.625Z,18.70
2019-01-31T03:03:54.492Z,19.67
2019-01-31T03:06:35.335Z,24.13
2019-01-31T03:09:17.466Z,23.33
2019-01-31T03:11:58.284Z,22.13
2019-01-31T03:14:40.977Z,23.13
2019-01-31T03:18:22.854Z,24.97
2019-01-31T03:22:02.227Z,23.57
2019-01-31T03:24:51.075Z,22.40
2019-01-31T03:27:35.744Z,25.80
2019-01-31T03:31:22.491Z,27.93
2019-01-31T03:34:01.581Z,25.27
2019-01-31T03:36:47.101Z,26.33
2019-01-31T03:39:30.312Z,23.73
2019-01-31T03:43:37.909Z,26.17
2019-01-31T03:46:19.709Z,25.50
2019-01-31T03:48:59.546Z,25.90
2019-01-31T03:51:44.546Z,26.70
2019-01-31T03:54:31.224Z,25.97
2019-01-31T03:57:13.197Z,24.33
2019-01-31T03:59:51.516Z,21.83
2019-01-31T04:02:31.531Z,25.20
2019-01-31T04:05:11.352Z,28.37
2019-01-31T04:07:40.121Z,27.57
2019-01-31T04:10:18.596Z,27.80
2019-01-31T04:12:37.851Z,41.60
2019-01-31T04:15:07.923Z,30.80
2019-01-31T04:17:36.793Z,31.10
2019-01-31T04:20:06.179Z,27.83
2019-01-31T04:22:35.002Z,32.27
2019-01-31T04:25:04.105Z,26.97
2019-01-31T04:27:32.891Z,28.47
2019-01-31T04:30:01.708Z,27.00
2019-01-31T04:32:30.735Z,26.47
2019-01-31T04:34:59.544Z,28.60
2019-01-31T04:37:28.442Z,29.17
2019-01-31T04:39:57.282Z,25.53
2019-01-31T04:42:26.062Z,29.10
2019-01-31T04:44:54.861Z,44.27
2019-01-31T04:47:23.771Z,29.03
2019-01-31T04:49:52.572Z,33.03
2019-01-31T04:52:21.360Z,29.87
2019-01-31T04:54:50.149Z,30.33
2019-01-31T04:57:19.190Z,28.37
2019-01-31T04:59:47.932Z,24.50
2019-01-31T05:02:16.759Z,39.80
2019-01-31T05:04:45.560Z,31.90
2019-01-31T05:07:14.363Z,27.17
2019-01-31T05:09:43.175Z,30.40
2019-01-31T05:12:11.961Z,27.30
2019-01-31T05:14:40.870Z,28.03
2019-01-31T05:17:09.716Z,29.43
2019-01-31T05:19:38.612Z,29.33
2019-01-31T05:22:07.429Z,31.07
2019-01-31T05:24:36.193Z,31.93
2019-01-31T05:27:05.108Z,36.93
2019-01-31T05:29:33.949Z,32.87
2019-01-31T05:32:02.828Z,33.50
2019-01-31T05:34:31.725Z,36.63
2019-01-31T05:37:00.559Z,32.93
2019-01-31T05:39:29.479Z,34.33
2019-01-31T05:41:58.368Z,36.73
2019-01-31T05:44:27.124Z,36.83
2019-01-31T05:46:56.012Z,35.63
2019-01-31T05:49:24.888Z,38.33
2019-01-31T05:51:53.688Z,36.63
2019-01-31T05:54:22.477Z,39.77
2019-01-31T05:56:51.366Z,39.07
2019-01-31T05:59:20.172Z,42.07
2019-01-31T06:01:50.047Z,38.60
2019-01-31T06:04:23.222Z,37.00
2019-01-31T06:06:52.030Z,37.87
2019-01-31T06:09:20.879Z,38.37
2019-01-31T06:11:49.691Z,39.37
2019-01-31T06:14:18.601Z,39.57
2019-01-31T06:16:47.432Z,39.97
2019-01-31T06:19:16.267Z,35.93
2019-01-31T06:21:45.103Z,40.27
2019-01-31T06:24:13.968Z,38.57
2019-01-31T06:26:43.383Z,36.53
2019-01-31T06:29:12.234Z,42.50
2019-01-31T06:31:41.075Z,37.33
2019-01-31T06:34:10.010Z,41.20
2019-01-31T06:36:38.803Z,42.57
2019-01-31T06:39:08.822Z,44.87
2019-01-31T06:41:38.237Z,40.80
2019-01-31T06:44:07.110Z,36.60
2019-01-31T06:46:35.934Z,41.07
2019-01-31T06:49:04.755Z,43.20
2019-01-31T06:51:33.562Z,42.60
2019-01-31T06:54:02.346Z,43.43
2019-01-31T06:56:31.212Z,44.47
2019-01-31T06:59:00.152Z,44.57
2019-01-31T07:01:28.949Z,46.43
2019-01-31T07:03:57.739Z,47.23
2019-01-31T07:06:26.602Z,45.27
2019-01-31T07:08:55.452Z,47.30
2019-01-31T07:11:30.285Z,50.47
2019-01-31T07:13:53.117Z,47.40
2019-01-31T07:16:22.796Z,52.90
2019-01-31T07:18:51.579Z,54.63
2019-01-31T07:21:20.483Z,53.60
2019-01-31T07:23:49.326Z,49.87
2019-01-31T07:26:18.205Z,48.60
2019-01-31T07:28:47.060Z,47.17
2019-01-31T07:31:15.871Z,46.23
2019-01-31T07:33:44.663Z,49.43
2019-01-31T07:36:13.514Z,49.37
2019-01-31T07:38:42.316Z,48.73
2019-01-31T07:41:11.304Z,50.87
2019-01-31T07:43:39.949Z,42.17
2019-01-31T07:46:08.858Z,45.47
2019-01-31T07:48:37.687Z,44.43
2019-01-31T07:51:06.476Z,46.53
2019-01-31T07:53:35.382Z,49.97
2019-01-31T07:56:04.211Z,50.40
2019-01-31T07:58:33.022Z,49.47
2019-01-31T08:01:01.820Z,48.00
2019-01-31T08:03:30.652Z,47.60
2019-01-31T08:05:59.427Z,47.93
2019-01-31T08:08:28.302Z,44.63
2019-01-31T08:10:57.073Z,45.70
2019-01-31T08:13:25.860Z,41.50
2019-01-31T08:15:54.652Z,46.67
2019-01-31T08:18:23.435Z,45.73
2019-01-31T08:20:52.227Z,47.90
2019-01-31T08:23:21.098Z,45.50
2019-01-31T08:25:49.883Z,43.87
2019-01-31T08:28:18.713Z,45.47
2019-01-31T08:30:47.666Z,47.80
2019-01-31T08:33:16.478Z,46.13
2019-01-31T08:35:45.345Z,47.60
2019-01-31T08:38:14.211Z,47.43
2019-01-31T08:40:43.019Z,46.13
2019-01-31T08:43:11.803Z,42.07
2019-01-31T08:45:40.572Z,39.93
2019-01-31T08:48:09.368Z,44.97
2019-01-31T08:50:38.148Z,45.47
2019-01-31T08:53:07.056Z,39.67
2019-01-31T08:55:35.917Z,43.43
2019-01-31T08:58:04.703Z,43.23
2019-01-31T09:00:33.512Z,46.53
2019-01-31T09:03:02.391Z,46.30
2019-01-31T09:05:31.163Z,41.10
2019-01-31T09:08:00.011Z,45.47
2019-01-31T09:10:32.207Z,41.13
2019-01-31T09:13:03.050Z,39.57
2019-01-31T09:15:31.826Z,42.33
2019-01-31T09:18:00.631Z,44.20
2019-01-31T09:20:36.791Z,43.63
2019-01-31T09:23:13.334Z,40.63
2019-01-31T09:25:55.196Z,38.43
2019-01-31T09:28:36.733Z,40.73
2019-01-31T09:32:21.595Z,42.97
2019-01-31T09:34:58.304Z,40.40
2019-01-31T09:37:45.928Z,36.90
2019-01-31T09:40:22.955Z,41.80
2019-01-31T09:43:27.391Z,39.43
2019-01-31T09:46:06.041Z,37.50
2019-01-31T09:50:48.652Z,36.83
2019-01-31T09:55:32.440Z,37.30
2019-01-31T09:58:12.887Z,33.17
2019-01-31T10:00:51.907Z,33.27
2019-01-31T10:03:35.230Z,38.07
2019-01-31T10:06:27.324Z,38.27
2019-01-31T10:09:06.731Z,39.70
2019-01-31T10:11:47.539Z,37.00
2019-01-31T10:14:39.289Z,39.80
2019-01-31T10:17:52.315Z,34.60
2019-01-31T10:25:22.351Z,34.03
2019-01-31T10:28:02.467Z,33.53
2019-01-31T10:30:41.283Z,34.77
2019-01-31T10:33:27.995Z,34.93
2019-01-31T10:36:10.980Z,37.10
2019-01-31T10:38:57.355Z,36.30
2019-01-31T10:43:43.164Z,34.40
2019-01-31T10:46:25.915Z,37.10
2019-01-31T10:49:04.387Z,35.87
2019-01-31T10:51:49.063Z,40.43
2019-01-31T10:54:36.690Z,38.57
2019-01-31T10:57:26.324Z,39.27
2019-01-31T11:01:07.794Z,39.03
2019-01-31T11:03:49.033Z,43.17
2019-01-31T11:06:33.483Z,35.40
2019-01-31T11:11:21.699Z,37.93
2019-01-31T11:14:03.889Z,35.17
2019-01-31T11:16:49.999Z,38.00
2019-01-31T11:21:36.299Z,40.30
2019-01-31T11:24:16.091Z,37.83
2019-01-31T11:26:57.067Z,39.67
2019-01-31T11:29:36.993Z,39.07
2019-01-31T11:34:32.433Z,40.20
2019-01-31T11:37:00.264Z,37.43
2019-01-31T11:40:50.180Z,40.03
2019-01-31T11:43:39.837Z,42.53
2019-01-31T11:46:20.226Z,45.63
2019-01-31T11:48:59.156Z,42.37
2019-01-31T11:51:48.496Z,38.93
2019-01-31T11:55:13.223Z,45.57
2019-01-31T11:58:14.491Z,45.47
2019-01-31T12:00:43.279Z,44.10
2019-01-31T12:03:12.136Z,46.33
2019-01-31T12:05:40.919Z,48.77
2019-01-31T12:08:09.724Z,44.57
2019-01-31T12:10:38.655Z,48.10
2019-01-31T12:13:07.514Z,46.07
2019-01-31T12:15:36.327Z,44.17
2019-01-31T12:18:05.495Z,46.97
2019-01-31T12:20:34.307Z,44.97
2019-01-31T12:23:03.128Z,42.93
2019-01-31T12:25:31.963Z,44.40
2019-01-31T12:28:00.854Z,46.93
2019-01-31T12:30:29.706Z,43.50
2019-01-31T12:32:58.536Z,47.07
2019-01-31T12:35:27.325Z,45.23
2019-01-31T12:37:56.166Z,46.90
2019-01-31T12:40:25.048Z,43.60
2019-01-31T12:43:00.556Z,41.27
2019-01-31T12:45:29.338Z,44.63
2019-01-31T12:47:58.200Z,44.10
2019-01-31T12:50:28.130Z,44.60
2019-01-31T12:52:57.003Z,42.13
2019-01-31T12:55:25.782Z,44.40
2019-01-31T12:57:54.572Z,43.60
2019-01-31T13:00:25.451Z,42.67
2019-01-31T13:02:54.261Z,44.57
2019-01-31T13:05:23.048Z,50.50
2019-01-31T13:07:51.955Z,48.13
2019-01-31T13:10:20.727Z,48.83
2019-01-31T13:12:49.727Z,46.03
2019-01-31T13:15:18.888Z,46.63
2019-01-31T13:17:47.675Z,46.03
2019-01-31T13:20:19.283Z,37.23
2019-01-31T13:22:49.034Z,37.80
2019-01-31T13:25:17.843Z,35.63
2019-01-31T13:27:46.623Z,35.27
2019-01-31T13:30:17.147Z,32.83
2019-01-31T13:32:45.938Z,32.47
2019-01-31T13:35:14.850Z,30.77
2019-01-31T13:37:43.628Z,29.73
2019-01-31T13:40:16.178Z,32.70
2019-01-31T13:42:45.019Z,31.47
2019-01-31T13:45:15.078Z,30.70
2019-01-31T13:47:43.872Z,31.83
2019-01-31T13:50:13.778Z,29.93
2019-01-31T13:52:42.487Z,29.83
2019-01-31T13:55:18.572Z,29.90
2019-01-31T13:57:44.635Z,30.43
2019-01-31T14:00:14.160Z,28.00
2019-01-31T14:02:42.947Z,29.27
2019-01-31T14:05:12.431Z,26.80
2019-01-31T14:07:41.220Z,27.47
2019-01-31T14:10:11.669Z,24.80
2019-01-31T14:12:41.211Z,23.23
2019-01-31T14:15:10.651Z,23.23
2019-01-31T14:17:39.479Z,22.83
2019-01-31T14:20:10.807Z,24.43
2019-01-31T14:22:42.980Z,25.90
2019-01-31T14:25:08.488Z,25.33
2019-01-31T14:27:37.300Z,23.70
2019-01-31T14:30:10.618Z,24.03
2019-01-31T14:32:39.411Z,23.63
2019-01-31T14:35:09.183Z,22.90
2019-01-31T14:37:38.003Z,33.43
2019-01-31T14:40:10.244Z,30.73
2019-01-31T14:42:36.188Z,27.30
2019-01-31T14:45:05.503Z,24.63
2019-01-31T14:47:34.367Z,22.87
2019-01-31T14:50:03.164Z,24.03
2019-01-31T14:52:32.018Z,26.07
2019-01-31T14:55:01.475Z,24.27
2019-01-31T14:57:30.305Z,24.63
2019-01-31T14:59:59.170Z,24.97
2019-01-31T15:02:27.953Z,24.07
2019-01-31T15:04:56.735Z,25.57
2019-01-31T15:07:25.719Z,25.50
2019-01-31T15:09:54.597Z,24.37
2019-01-31T15:12:23.454Z,24.30
2019-01-31T15:14:52.310Z,24.57
2019-01-31T15:17:21.755Z,24.33
2019-01-31T15:19:50.539Z,26.63
2019-01-31T15:22:19.382Z,24.77
2019-01-31T15:24:48.231Z,26.70
2019-01-31T15:27:17.115Z,26.10
2019-01-31T15:29:45.881Z,25.77
2019-01-31T15:32:14.662Z,25.87
2019-01-31T15:34:43.455Z,26.33
2019-01-31T15:37:12.282Z,25.17
2019-01-31T15:39:41.071Z,25.23
2019-01-31T15:42:09.986Z,26.07
2019-01-31T15:44:43.380Z,25.03
2019-01-31T15:47:07.695Z,48.97
2019-01-31T15:49:36.483Z,30.77
2019-01-31T15:52:05.588Z,27.17
2019-01-31T15:54:34.420Z,26.87
2019-01-31T15:57:03.231Z,26.73
2019-01-31T15:59:32.204Z,26.93
2019-01-31T16:02:03.234Z,29.63
2019-01-31T16:04:32.093Z,27.40
2019-01-31T16:07:01.511Z,31.73
2019-01-31T16:09:30.287Z,28.10
2019-01-31T16:11:59.784Z,28.63
2019-01-31T16:14:27.961Z,29.53
2019-01-31T16:16:56.816Z,28.23
2019-01-31T16:19:25.644Z,30.70
2019-01-31T16:21:54.507Z,29.47
2019-01-31T16:24:23.476Z,31.37
2019-01-31T16:26:52.267Z,30.23
2019-01-31T16:29:21.048Z,32.43
2019-01-31T16:31:49.943Z,32.63
2019-01-31T16:34:18.800Z,32.30
2019-01-31T16:36:47.600Z,33.60
2019-01-31T16:39:16.375Z,33.40
2019-01-31T16:41:45.856Z,31.60
2019-01-31T16:44:14.683Z,36.60
2019-01-31T16:46:43.508Z,35.83
2019-01-31T16:49:13.040Z,34.03
2019-01-31T16:51:41.914Z,34.83
2019-01-31T16:54:10.854Z,37.27
2019-01-31T16:56:39.700Z,39.57
2019-01-31T16:59:09.059Z,38.43
2019-01-31T17:01:37.848Z,38.77
2019-01-31T17:04:06.687Z,35.93
2019-01-31T17:06:41.818Z,34.87
2019-01-31T17:09:10.655Z,35.00
2019-01-31T17:11:39.454Z,33.63
2019-01-31T17:14:08.248Z,35.53
2019-01-31T17:16:37.081Z,31.40
2019-01-31T17:19:06.400Z,38.90
2019-01-31T17:21:35.239Z,34.87
2019-01-31T17:24:04.124Z,27.40
2019-01-31T17:26:32.894Z,25.67
2019-01-31T17:29:01.679Z,27.90
2019-01-31T17:31:30.555Z,29.40
2019-01-31T17:33:59.343Z,29.27
2019-01-31T17:36:28.135Z,26.63
2019-01-31T17:38:56.915Z,35.53
2019-01-31T17:41:25.700Z,29.47
2019-01-31T17:43:54.492Z,28.07
2019-01-31T17:46:23.290Z,28.67
2019-01-31T17:48:52.214Z,31.30
2019-01-31T17:51:20.979Z,29.37
2019-01-31T17:53:49.779Z,30.67
2019-01-31T17:56:18.607Z,33.40
2019-01-31T17:58:47.411Z,29.90
2019-01-31T18:01:16.216Z,30.23
2019-01-31T18:03:45.033Z,31.33
2019-01-31T18:06:13.828Z,27.37
2019-01-31T18:08:42.644Z,27.80
2019-01-31T18:11:11.607Z,32.03
2019-01-31T18:13:40.418Z,30.00
2019-01-31T18:16:09.243Z,30.33
2019-01-31T18:18:38.108Z,30.77
2019-01-31T18:21:06.950Z,29.67
2019-01-31T18:23:35.755Z,30.23
2019-01-31T18:26:04.597Z,30.83
2019-01-31T18:28:33.843Z,30.53
2019-01-31T18:31:02.675Z,32.83
2019-01-31T18:33:31.479Z,33.10
2019-01-31T18:36:00.280Z,34.63
2019-01-31T18:38:29.071Z,34.87
2019-01-31T18:40:58.002Z,34.33
2019-01-31T18:43:27.556Z,35.37
2019-01-31T18:45:56.468Z,35.53
2019-01-31T18:48:25.333Z,33.07
2019-01-31T18:50:54.115Z,33.17
2019-01-31T18:53:22.988Z,34.23
2019-01-31T18:55:51.860Z,34.83
2019-01-31T18:58:20.639Z,35.43
2019-01-31T19:00:50.350Z,36.37
2019-01-31T19:03:19.135Z,36.23
2019-01-31T19:05:47.910Z,34.50
2019-01-31T19:08:16.757Z,41.30
2019-01-31T19:10:45.541Z,40.57
2019-01-31T19:13:14.326Z,36.93
2019-01-31T19:15:43.116Z,36.90
2019-01-31T19:18:11.937Z,37.97
2019-01-31T19:20:40.754Z,37.30
2019-01-31T19:23:09.575Z,38.23
2019-01-31T19:25:38.371Z,36.43
2019-01-31T19:28:07.655Z,34.73
2019-01-31T19:30:38.196Z,35.37
2019-01-31T19:33:07.804Z,38.90
2019-01-31T19:35:36.780Z,39.90
2019-01-31T19:38:06.566Z,35.20
2019-01-31T19:40:36.382Z,36.87
2019-01-31T19:43:05.663Z,37.03
2019-01-31T19:45:37.448Z,38.30
2019-01-31T19:48:07.058Z,36.83
2019-01-31T19:50:35.861Z,36.70
2019-01-31T19:53:04.986Z,40.93
2019-01-31T19:55:33.856Z,40.90
2019-01-31T19:58:02.657Z,36.97
2019-01-31T20:00:31.496Z,41.03
2019-01-31T20:03:00.428Z,41.57
2019-01-31T20:05:29.183Z,42.17
2019-01-31T20:07:57.973Z,42.43
2019-01-31T20:10:27.570Z,41.00
2019-01-31T20:12:56.630Z,41.90
2019-01-31T20:15:25.448Z,47.57
2019-01-31T20:17:54.235Z,43.80
2019-01-31T20:20:24.367Z,42.80
2019-01-31T20:22:54.002Z,43.80
2019-01-31T20:25:22.770Z,43.40
2019-01-31T20:27:51.560Z,46.97
2019-01-31T20:30:26.162Z,46.13
2019-01-31T20:32:55.019Z,44.00
2019-01-31T20:35:23.816Z,47.10
2019-01-31T20:37:52.643Z,44.90
2019-01-31T20:40:24.712Z,43.57
2019-01-31T20:42:53.481Z,43.73
2019-01-31T20:45:22.260Z,44.73
2019-01-31T20:47:51.046Z,46.20
2019-01-31T20:50:22.951Z,41.30
2019-01-31T20:52:51.738Z,38.77
2019-01-31T20:55:20.703Z,43.50
2019-01-31T20:57:49.476Z,40.27
2019-01-31T21:00:22.804Z,34.03
2019-01-31T21:02:51.665Z,42.17
2019-01-31T21:05:20.535Z,39.47
2019-01-31T21:07:49.438Z,40.87
2019-01-31T21:10:18.346Z,40.60
2019-01-31T21:12:47.122Z,39.00
2019-01-31T21:15:18.090Z,39.80
2019-01-31T21:17:46.863Z,39.83
2019-01-31T21:20:16.690Z,37.83
2019-01-31T21:22:45.465Z,34.27
2019-01-31T21:25:14.462Z,36.70
2019-01-31T21:27:43.248Z,36.97
2019-01-31T21:30:15.623Z,33.03
2019-01-31T21:32:44.470Z,34.90
2019-01-31T21:35:13.278Z,38.23
2019-01-31T21:37:42.087Z,37.77
2019-01-31T21:40:11.135Z,36.30
2019-01-31T21:42:39.975Z,39.37
2019-01-31T21:45:10.407Z,38.37
2019-01-31T21:47:39.235Z,40.27
2019-01-31T21:50:10.334Z,41.83
2019-01-31T21:52:39.129Z,49.63
2019-01-31T21:55:08.375Z,40.33
2019-01-31T21:57:37.180Z,41.13
2019-01-31T22:00:08.722Z,39.47
2019-01-31T22:02:37.492Z,40.80
2019-01-31T22:05:07.656Z,47.23
2019-01-31T22:07:36.438Z,43.17
2019-01-31T22:10:06.422Z,42.00
2019-01-31T22:12:35.245Z,37.50
2019-01-31T22:15:04.176Z,34.83
2019-01-31T22:17:32.940Z,40.60
2019-01-31T22:20:01.811Z,38.83
2019-01-31T22:22:30.663Z,39.77
2019-01-31T22:24:59.491Z,38.00
2019-01-31T22:27:28.286Z,41.07
2019-01-31T22:29:57.060Z,37.03
2019-01-31T22:32:25.925Z,37.07
2019-01-31T22:34:54.783Z,34.47
2019-01-31T22:37:23.605Z,36.77
2019-01-31T22:39:52.374Z,35.83
2019-01-31T22:42:21.164Z,35.37
2019-01-31T22:44:50.012Z,35.37
2019-01-31T22:47:25.763Z,35.27
2019-01-31T22:49:47.734Z,32.73
2019-01-31T22:52:16.520Z,30.40
2019-01-31T22:54:45.320Z,32.83
2019-01-31T22:57:14.114Z,32.70
2019-01-31T22:59:42.959Z,32.27
2019-01-31T23:02:13.970Z,33.00
2019-01-31T23:04:42.934Z,29.87
2019-01-31T23:07:11.718Z,32.60
2019-01-31T23:09:40.511Z,30.87
2019-01-31T23:12:09.336Z,31.27
2019-01-31T23:14:38.165Z,32.13
2019-01-31T23:17:07.136Z,28.93
2019-01-31T23:19:35.941Z,28.77
2019-01-31T23:22:04.735Z,27.57
2019-01-31T23:24:33.603Z,30.73
2019-01-31T23:27:02.467Z,28.67
2019-01-31T23:29:31.216Z,27.47
2019-01-31T23:32:00.082Z,27.30
2019-01-31T23:34:28.992Z,27.93
2019-01-31T23:36:57.759Z,27.67
2019-01-31T23:39:26.554Z,27.53
2019-01-31T23:41:55.350Z,27.80
2019-01-31T23:44:24.206Z,25.50
2019-01-31T23:46:53.087Z,25.43
2019-01-31T23:49:21.873Z,24.57
2019-01-31T23:51:50.747Z,25.37
2019-01-31T23:54:19.558Z,24.23
2019-01-31T23:56:48.404Z,26.50
2019-01-31T23:59:17.177Z,23.73
